Kamari — D5DX7 — position and weather

sailwx.info

Track history (hours):
 
Tides and Currents Weather Stations Pressure Air Temp Water Temp Dewpoint Dewpoint Depression Visibility Wind Speed Wind Dir Waves Ship Positions

Kamari

Last reported at 2018-Jun-16 03:32 UTC. Time now 2018-Jun-24 11:10 UTC.
Position N 31°28' E 032°18'.
Warning: this ship's position is 8 days out of date.

Length 270 m; draft 17.5 m.

Type: Tanker. MMSI: 636015996.

Date/timePositionNaut miles runAvg speedWind from/ knotsBaromVisibWave heightAir tempDewpointWater temp
2018-Jun-16 03:32N 31°28' E 032°18'0 0.9
2018-Jun-16 03:30N 31°28' E 032°18'0 0.0
2018-Jun-16 02:49N 31°28' E 032°18'0 0.0
2018-Jun-16 02:28N 31°28' E 032°18'0 0.0
2018-Jun-16 01:58N 31°28' E 032°18'0 0.0
2018-Jun-16 01:01N 31°28' E 032°18'0 0.0
2018-Jun-16 00:55N 31°28' E 032°18'0 0.0
2018-Jun-16 00:28N 31°28' E 032°18'0 0.0
2018-Jun-15 23:52N 31°28' E 032°18'0 0.0
2018-Jun-15 23:25N 31°28' E 032°18'0 0.1
2018-Jun-15 22:58N 31°28' E 032°18'0 0.0
2018-Jun-15 20:49N 31°28' E 032°18'0 0.1
2018-Jun-15 20:28N 31°27' E 032°18'0 0.1
2018-Jun-15 19:07N 31°27' E 032°18'0 0.0
2018-Jun-15 18:58N 31°27' E 032°18'0 0.0
2018-Jun-15 17:49N 31°27' E 032°18'0 0.1
2018-Jun-15 17:28N 31°27' E 032°18'0 0.0
2018-Jun-15 16:22N 31°27' E 032°18'0 0.0
2018-Jun-15 15:58N 31°27' E 032°18'0 0.0
2018-Jun-15 15:25N 31°27' E 032°18'  
2018-Jun-11 23:01N 36°04' E 014°42'0 4.6
2018-Jun-11 23:00N 36°04' E 014°42'1 1.9
2018-Jun-11 22:30N 36°04' E 014°41'0 0.2
2018-Jun-11 21:54N 36°04' E 014°41'0 0.5
2018-Jun-11 21:30N 36°04' E 014°41'0 0.5
2018-Jun-11 21:00N 36°04' E 014°41'0 0.6
2018-Jun-11 20:21N 36°04' E 014°42'0 0.6
2018-Jun-11 20:00N 36°03' E 014°42'0 0.5
2018-Jun-11 19:30N 36°03' E 014°42'0 0.5
2018-Jun-11 19:00N 36°03' E 014°43'0 0.5
2018-Jun-11 18:30N 36°03' E 014°43'0 0.5
2018-Jun-11 18:00N 36°03' E 014°43'0 0.6
2018-Jun-11 17:30N 36°03' E 014°44'0 0.5
2018-Jun-11 17:00N 36°03' E 014°44'0 0.5
2018-Jun-11 16:30N 36°03' E 014°44'0 0.6
2018-Jun-11 16:00N 36°03' E 014°44'0 0.5
2018-Jun-11 15:30N 36°03' E 014°45'0 0.5
2018-Jun-11 14:48N 36°03' E 014°45'1 1.4
2018-Jun-11 14:12N 36°02' E 014°45'2 3.9
2018-Jun-11 13:48N 36°01' E 014°46'1 4.8
2018-Jun-11 13:29N 35°60' E 014°48'3 1.8
2018-Jun-11 11:44N 35°59' E 014°51'0 0.1
2018-Jun-11 11:26N 35°59' E 014°51'0 0.1
2018-Jun-11 10:59N 35°59' E 014°51'0 0.0
2018-Jun-11 10:29N 35°59' E 014°51'0 0.0
2018-Jun-11 08:26N 35°59' E 014°51'0 0.1
2018-Jun-11 07:59N 35°59' E 014°51'0 0.0
2018-Jun-11 07:14N 35°59' E 014°51'0 0.0
2018-Jun-11 06:59N 35°59' E 014°51'0 0.0
2018-Jun-11 06:23N 35°59' E 014°51'0 0.0
2018-Jun-11 05:59N 35°59' E 014°51'2 0.1
2018-Jun-10 07:59N 35°59' E 014°50'0 0.0
2018-Jun-09 21:43N 35°59' E 014°50'0 1.3
2018-Jun-09 21:30N 35°59' E 014°50'4 4.0
2018-Jun-09 20:27N 36°03' E 014°53'2 4.6
2018-Jun-09 19:58N 36°03' E 014°55'2 1.4
2018-Jun-09 18:30N 36°04' E 014°58'4 5.1
2018-Jun-09 17:45N 36°04' E 014°53'1 5.0
2018-Jun-09 17:30N 36°04' E 014°51'3 5.8
2018-Jun-09 17:00N 36°02' E 014°48'3 6.1
2018-Jun-09 16:30N 35°60' E 014°50'0 0.3
2018-Jun-09 14:58N 35°59' E 014°50'0 0.0
2018-Jun-09 14:28N 35°59' E 014°50'0 0.1
2018-Jun-09 13:46N 35°59' E 014°50'0 0.0
2018-Jun-09 02:01N 35°59' E 014°50'0 0.1
2018-Jun-09 01:55N 35°59' E 014°50'0 0.0
2018-Jun-09 01:13N 35°59' E 014°50'0 0.1
2018-Jun-09 00:52N 35°59' E 014°50'0 0.0
2018-Jun-09 00:04N 35°59' E 014°50'0 0.0
2018-Jun-08 23:43N 35°59' E 014°50'0 0.1
2018-Jun-08 23:25N 35°59' E 014°50'0 0.0
2018-Jun-08 22:55N 35°59' E 014°50'0 0.0
2018-Jun-08 22:28N 35°59' E 014°50'0 0.0
2018-Jun-08 21:55N 35°59' E 014°50'0 0.0
2018-Jun-08 21:28N 35°59' E 014°50'0 0.0
2018-Jun-08 20:55N 35°59' E 014°50'0 0.0
2018-Jun-08 20:28N 35°59' E 014°50'0 0.0
2018-Jun-08 19:55N 35°59' E 014°50'0 0.1
2018-Jun-08 19:25N 35°59' E 014°50'0 0.0
2018-Jun-08 18:49N 35°59' E 014°50'0 0.1
2018-Jun-08 18:28N 35°59' E 014°50'0 0.0
2018-Jun-08 17:58N 35°59' E 014°50'0 0.0
2018-Jun-08 10:07N 35°59' E 014°50'0 0.1
2018-Jun-08 09:52N 35°59' E 014°50'0 0.0
2018-Jun-08 09:25N 35°59' E 014°50'0 0.0
2018-Jun-08 08:58N 35°59' E 014°50'0 0.0
2018-Jun-08 08:16N 35°59' E 014°50'0 0.0
2018-Jun-08 07:58N 35°59' E 014°50'0 0.0
2018-Jun-07 06:07N 35°59' E 014°50'0 0.0
2018-Jun-07 05:59N 35°59' E 014°50'0 0.0
2018-Jun-07 05:29N 35°59' E 014°50'0 0.0
2018-Jun-07 05:01N 35°59' E 014°50'0 0.0
2018-Jun-07 02:00N 35°60' E 014°50'0 0.0
2018-Jun-07 01:28N 35°60' E 014°50'0 0.0
2018-Jun-07 01:00N 35°60' E 014°50'0 0.0
2018-Jun-06 23:33N 35°60' E 014°50'0 0.0
2018-Jun-06 23:23N 35°60' E 014°50'0 0.0
2018-Jun-06 22:38N 35°60' E 014°50'0 0.0
2018-Jun-06 22:30N 35°60' E 014°50'0 0.0
2018-Jun-06 21:52N 35°60' E 014°50'0 0.0
2018-Jun-06 21:30N 35°60' E 014°50'0 0.0
2018-Jun-06 20:59N 35°60' E 014°50'0 0.1
2018-Jun-06 20:29N 35°59' E 014°50'0 0.0
2018-Jun-06 19:42N 35°60' E 014°50'0 0.1
2018-Jun-06 19:30N 35°60' E 014°50'0 0.0
2018-Jun-06 13:54N 35°59' E 014°50'0 0.1
2018-Jun-06 13:26N 35°59' E 014°50'0 0.1
2018-Jun-06 12:54N 35°59' E 014°50'0 0.1
2018-Jun-06 12:30N 35°59' E 014°50'0 0.1
2018-Jun-06 11:56N 35°59' E 014°50'8 2.9
2018-Jun-06 09:16N 36°04' E 014°43'2 4.2
2018-Jun-06 08:54N 36°06' E 014°41'2 4.3
2018-Jun-06 08:29N 36°07' E 014°40'2 4.1
2018-Jun-06 08:00N 36°09' E 014°39'1 1.8
2018-Jun-06 07:20N 36°10' E 014°39'1 2.5
2018-Jun-06 07:00N 36°09' E 014°40'  
Track history (hours):
 
Tides and Currents Weather Stations Pressure Air Temp Water Temp Dewpoint Dewpoint Depression Visibility Wind Speed Wind Dir Waves Ship Positions

Kamari

Last reported at 2018-Jun-16 03:32 UTC. Time now 2018-Jun-24 11:10 UTC.
Position N 31°28' E 032°18'.
Warning: this ship's position is 8 days out of date.

Length 270 m; draft 17.5 m.

Type: Tanker. MMSI: 636015996.

Date/timePositionNaut miles runAvg speedWind from/ knotsBaromVisibWave heightAir tempDewpointWater temp
2018-Jun-16 03:32N 31°28' E 032°18'0 0.9
2018-Jun-16 03:30N 31°28' E 032°18'0 0.0
2018-Jun-16 02:49N 31°28' E 032°18'0 0.0
2018-Jun-16 02:28N 31°28' E 032°18'0 0.0
2018-Jun-16 01:58N 31°28' E 032°18'0 0.0
2018-Jun-16 01:01N 31°28' E 032°18'0 0.0
2018-Jun-16 00:55N 31°28' E 032°18'0 0.0
2018-Jun-16 00:28N 31°28' E 032°18'0 0.0
2018-Jun-15 23:52N 31°28' E 032°18'0 0.0
2018-Jun-15 23:25N 31°28' E 032°18'0 0.1
2018-Jun-15 22:58N 31°28' E 032°18'0 0.0
2018-Jun-15 20:49N 31°28' E 032°18'0 0.1
2018-Jun-15 20:28N 31°27' E 032°18'0 0.1
2018-Jun-15 19:07N 31°27' E 032°18'0 0.0
2018-Jun-15 18:58N 31°27' E 032°18'0 0.0
2018-Jun-15 17:49N 31°27' E 032°18'0 0.1
2018-Jun-15 17:28N 31°27' E 032°18'0 0.0
2018-Jun-15 16:22N 31°27' E 032°18'0 0.0
2018-Jun-15 15:58N 31°27' E 032°18'0 0.0
2018-Jun-15 15:25N 31°27' E 032°18'  
2018-Jun-11 23:01N 36°04' E 014°42'0 4.6
2018-Jun-11 23:00N 36°04' E 014°42'1 1.9
2018-Jun-11 22:30N 36°04' E 014°41'0 0.2
2018-Jun-11 21:54N 36°04' E 014°41'0 0.5
2018-Jun-11 21:30N 36°04' E 014°41'0 0.5
2018-Jun-11 21:00N 36°04' E 014°41'0 0.6
2018-Jun-11 20:21N 36°04' E 014°42'0 0.6
2018-Jun-11 20:00N 36°03' E 014°42'0 0.5
2018-Jun-11 19:30N 36°03' E 014°42'0 0.5
2018-Jun-11 19:00N 36°03' E 014°43'0 0.5
2018-Jun-11 18:30N 36°03' E 014°43'0 0.5
2018-Jun-11 18:00N 36°03' E 014°43'0 0.6
2018-Jun-11 17:30N 36°03' E 014°44'0 0.5
2018-Jun-11 17:00N 36°03' E 014°44'0 0.5
2018-Jun-11 16:30N 36°03' E 014°44'0 0.6
2018-Jun-11 16:00N 36°03' E 014°44'0 0.5
2018-Jun-11 15:30N 36°03' E 014°45'0 0.5
2018-Jun-11 14:48N 36°03' E 014°45'1 1.4
2018-Jun-11 14:12N 36°02' E 014°45'2 3.9
2018-Jun-11 13:48N 36°01' E 014°46'1 4.8
2018-Jun-11 13:29N 35°60' E 014°48'3 1.8
2018-Jun-11 11:44N 35°59' E 014°51'0 0.1
2018-Jun-11 11:26N 35°59' E 014°51'0 0.1
2018-Jun-11 10:59N 35°59' E 014°51'0 0.0
2018-Jun-11 10:29N 35°59' E 014°51'0 0.0
2018-Jun-11 08:26N 35°59' E 014°51'0 0.1
2018-Jun-11 07:59N 35°59' E 014°51'0 0.0
2018-Jun-11 07:14N 35°59' E 014°51'0 0.0
2018-Jun-11 06:59N 35°59' E 014°51'0 0.0
2018-Jun-11 06:23N 35°59' E 014°51'0 0.0
2018-Jun-11 05:59N 35°59' E 014°51'2 0.1
2018-Jun-10 07:59N 35°59' E 014°50'0 0.0
2018-Jun-09 21:43N 35°59' E 014°50'0 1.3
2018-Jun-09 21:30N 35°59' E 014°50'4 4.0
2018-Jun-09 20:27N 36°03' E 014°53'2 4.6
2018-Jun-09 19:58N 36°03' E 014°55'2 1.4
2018-Jun-09 18:30N 36°04' E 014°58'4 5.1
2018-Jun-09 17:45N 36°04' E 014°53'1 5.0
2018-Jun-09 17:30N 36°04' E 014°51'3 5.8
2018-Jun-09 17:00N 36°02' E 014°48'3 6.1
2018-Jun-09 16:30N 35°60' E 014°50'0 0.3
2018-Jun-09 14:58N 35°59' E 014°50'0 0.0
2018-Jun-09 14:28N 35°59' E 014°50'0 0.1
2018-Jun-09 13:46N 35°59' E 014°50'0 0.0
2018-Jun-09 02:01N 35°59' E 014°50'0 0.1
2018-Jun-09 01:55N 35°59' E 014°50'0 0.0
2018-Jun-09 01:13N 35°59' E 014°50'0 0.1
2018-Jun-09 00:52N 35°59' E 014°50'0 0.0
2018-Jun-09 00:04N 35°59' E 014°50'0 0.0
2018-Jun-08 23:43N 35°59' E 014°50'0 0.1
2018-Jun-08 23:25N 35°59' E 014°50'0 0.0
2018-Jun-08 22:55N 35°59' E 014°50'0 0.0
2018-Jun-08 22:28N 35°59' E 014°50'0 0.0
2018-Jun-08 21:55N 35°59' E 014°50'0 0.0
2018-Jun-08 21:28N 35°59' E 014°50'0 0.0
2018-Jun-08 20:55N 35°59' E 014°50'0 0.0
2018-Jun-08 20:28N 35°59' E 014°50'0 0.0
2018-Jun-08 19:55N 35°59' E 014°50'0 0.1
2018-Jun-08 19:25N 35°59' E 014°50'0 0.0
2018-Jun-08 18:49N 35°59' E 014°50'0 0.1
2018-Jun-08 18:28N 35°59' E 014°50'0 0.0
2018-Jun-08 17:58N 35°59' E 014°50'0 0.0
2018-Jun-08 10:07N 35°59' E 014°50'0 0.1
2018-Jun-08 09:52N 35°59' E 014°50'0 0.0
2018-Jun-08 09:25N 35°59' E 014°50'0 0.0
2018-Jun-08 08:58N 35°59' E 014°50'0 0.0
2018-Jun-08 08:16N 35°59' E 014°50'0 0.0
2018-Jun-08 07:58N 35°59' E 014°50'0 0.0
2018-Jun-07 06:07N 35°59' E 014°50'0 0.0
2018-Jun-07 05:59N 35°59' E 014°50'0 0.0
2018-Jun-07 05:29N 35°59' E 014°50'0 0.0
2018-Jun-07 05:01N 35°59' E 014°50'0 0.0
2018-Jun-07 02:00N 35°60' E 014°50'0 0.0
2018-Jun-07 01:28N 35°60' E 014°50'0 0.0
2018-Jun-07 01:00N 35°60' E 014°50'0 0.0
2018-Jun-06 23:33N 35°60' E 014°50'0 0.0
2018-Jun-06 23:23N 35°60' E 014°50'0 0.0
2018-Jun-06 22:38N 35°60' E 014°50'0 0.0
2018-Jun-06 22:30N 35°60' E 014°50'0 0.0
2018-Jun-06 21:52N 35°60' E 014°50'0 0.0
2018-Jun-06 21:30N 35°60' E 014°50'0 0.0
2018-Jun-06 20:59N 35°60' E 014°50'0 0.1
2018-Jun-06 20:29N 35°59' E 014°50'0 0.0
2018-Jun-06 19:42N 35°60' E 014°50'0 0.1
2018-Jun-06 19:30N 35°60' E 014°50'0 0.0
2018-Jun-06 13:54N 35°59' E 014°50'0 0.1
2018-Jun-06 13:26N 35°59' E 014°50'0 0.1
2018-Jun-06 12:54N 35°59' E 014°50'0 0.1
2018-Jun-06 12:30N 35°59' E 014°50'0 0.1
2018-Jun-06 11:56N 35°59' E 014°50'8 2.9
2018-Jun-06 09:16N 36°04' E 014°43'2 4.2
2018-Jun-06 08:54N 36°06' E 014°41'2 4.3
2018-Jun-06 08:29N 36°07' E 014°40'2 4.1
2018-Jun-06 08:00N 36°09' E 014°39'1 1.8
2018-Jun-06 07:20N 36°10' E 014°39'1 2.5
2018-Jun-06 07:00N 36°09' E 014°40'  

Dump ship's entire track history